sensor_id;sensor_type;location;lat;lon;timestamp;temperature;humidity
45207;DHT22;30950;53.086;21.576;2022-11-20T00:01:26;-2.70;99.90
45207;DHT22;30950;53.086;21.576;2022-11-20T00:03:55;-2.60;99.90
45207;DHT22;30950;53.086;21.576;2022-11-20T00:06:23;-2.60;99.90
45207;DHT22;30950;53.086;21.576;2022-11-20T00:08:53;-2.60;99.90
45207;DHT22;30950;53.086;21.576;2022-11-20T00:11:23;-2.70;99.90
45207;DHT22;30950;53.086;21.576;2022-11-20T00:13:53;-2.70;99.90
45207;DHT22;30950;53.086;21.576;2022-11-20T00:16:23;-2.70;99.90
45207;DHT22;30950;53.086;21.576;2022-11-20T00:18:51;-2.70;99.90
45207;DHT22;30950;53.086;21.576;2022-11-20T00:21:25;-2.70;99.90
45207;DHT22;30950;53.086;21.576;2022-11-20T00:23:54;-2.70;99.90
45207;DHT22;30950;53.086;21.576;2022-11-20T00:26:24;-2.70;99.90
45207;DHT22;30950;53.086;21.576;2022-11-20T00:28:54;-2.70;99.90
45207;DHT22;30950;53.086;21.576;2022-11-20T00:31:22;-2.70;99.90
45207;DHT22;30950;53.086;21.576;2022-11-20T00:33:49;-2.80;99.90
45207;DHT22;30950;53.086;21.576;2022-11-20T00:36:19;-2.80;99.90
45207;DHT22;30950;53.086;21.576;2022-11-20T00:38:47;-2.80;99.90
45207;DHT22;30950;53.086;21.576;2022-11-20T00:41:18;-2.80;99.90
45207;DHT22;30950;53.086;21.576;2022-11-20T00:43:45;-2.80;99.90
45207;DHT22;30950;53.086;21.576;2022-11-20T00:46:18;-2.90;99.90
45207;DHT22;30950;53.086;21.576;2022-11-20T00:48:45;-2.90;99.90
45207;DHT22;30950;53.086;21.576;2022-11-20T00:51:15;-2.80;99.90
45207;DHT22;30950;53.086;21.576;2022-11-20T00:53:44;-2.80;99.90
45207;DHT22;30950;53.086;21.576;2022-11-20T00:56:13;-2.80;99.90
45207;DHT22;30950;53.086;21.576;2022-11-20T00:58:43;-2.80;99.90
45207;DHT22;30950;53.086;21.576;2022-11-20T01:01:19;-2.70;99.90
45207;DHT22;30950;53.086;21.576;2022-11-20T01:03:49;-2.70;99.90
45207;DHT22;30950;53.086;21.576;2022-11-20T01:06:23;-2.70;99.90
45207;DHT22;30950;53.086;21.576;2022-11-20T01:08:53;-2.70;99.90
45207;DHT22;30950;53.086;21.576;2022-11-20T01:11:27;-2.70;99.90
45207;DHT22;30950;53.086;21.576;2022-11-20T01:13:55;-2.70;99.90
45207;DHT22;30950;53.086;21.576;2022-11-20T01:16:26;-2.70;99.90
45207;DHT22;30950;53.086;21.576;2022-11-20T01:18:57;-2.60;99.90
45207;DHT22;30950;53.086;21.576;2022-11-20T01:21:33;-2.60;99.90
45207;DHT22;30950;53.086;21.576;2022-11-20T01:24:01;-2.60;99.90
45207;DHT22;30950;53.086;21.576;2022-11-20T01:26:32;-2.60;99.90
45207;DHT22;30950;53.086;21.576;2022-11-20T01:29:00;-2.50;99.90
45207;DHT22;30950;53.086;21.576;2022-11-20T01:31:30;-2.50;99.90
45207;DHT22;30950;53.086;21.576;2022-11-20T01:33:59;-2.50;99.90
45207;DHT22;30950;53.086;21.576;2022-11-20T01:36:29;-2.40;99.90
45207;DHT22;30950;53.086;21.576;2022-11-20T01:38:59;-2.50;99.90
45207;DHT22;30950;53.086;21.576;2022-11-20T01:41:28;-2.40;99.90
45207;DHT22;30950;53.086;21.576;2022-11-20T01:44:16;-2.40;99.90
45207;DHT22;30950;53.086;21.576;2022-11-20T01:46:59;-2.40;99.90
45207;DHT22;30950;53.086;21.576;2022-11-20T01:49:45;-2.40;99.90
45207;DHT22;30950;53.086;21.576;2022-11-20T01:52:18;-2.40;99.90
45207;DHT22;30950;53.086;21.576;2022-11-20T01:54:53;-2.40;99.90
45207;DHT22;30950;53.086;21.576;2022-11-20T01:57:25;-2.40;99.90
45207;DHT22;30950;53.086;21.576;2022-11-20T01:59:57;-2.40;99.90
45207;DHT22;30950;53.086;21.576;2022-11-20T02:02:27;-2.40;99.90
45207;DHT22;30950;53.086;21.576;2022-11-20T02:04:56;-2.40;99.90
45207;DHT22;30950;53.086;21.576;2022-11-20T02:07:26;-2.40;99.90
45207;DHT22;30950;53.086;21.576;2022-11-20T02:09:53;-2.30;99.90
45207;DHT22;30950;53.086;21.576;2022-11-20T02:12:25;-2.30;99.90
45207;DHT22;30950;53.086;21.576;2022-11-20T02:15:10;-2.30;99.90
45207;DHT22;30950;53.086;21.576;2022-11-20T02:17:38;-2.30;99.90
45207;DHT22;30950;53.086;21.576;2022-11-20T02:20:06;-2.40;99.90
45207;DHT22;30950;53.086;21.576;2022-11-20T02:22:41;-2.30;99.90
45207;DHT22;30950;53.086;21.576;2022-11-20T02:25:12;-2.30;99.90
45207;DHT22;30950;53.086;21.576;2022-11-20T02:27:41;-2.30;99.90
45207;DHT22;30950;53.086;21.576;2022-11-20T02:30:09;-2.30;99.90
45207;DHT22;30950;53.086;21.576;2022-11-20T02:32:38;-2.30;99.90
45207;DHT22;30950;53.086;21.576;2022-11-20T02:35:35;-2.30;99.90
45207;DHT22;30950;53.086;21.576;2022-11-20T02:37:59;-2.30;99.90
45207;DHT22;30950;53.086;21.576;2022-11-20T02:40:28;-2.30;99.90
45207;DHT22;30950;53.086;21.576;2022-11-20T02:42:56;-2.40;99.90
45207;DHT22;30950;53.086;21.576;2022-11-20T02:45:24;-2.40;99.90
45207;DHT22;30950;53.086;21.576;2022-11-20T02:47:52;-2.40;99.90
45207;DHT22;30950;53.086;21.576;2022-11-20T02:50:19;-2.40;99.90
45207;DHT22;30950;53.086;21.576;2022-11-20T02:52:47;-2.40;99.90
45207;DHT22;30950;53.086;21.576;2022-11-20T02:55:14;-2.40;99.90
45207;DHT22;30950;53.086;21.576;2022-11-20T02:57:42;-2.40;99.90
45207;DHT22;30950;53.086;21.576;2022-11-20T03:00:11;-2.40;99.90
45207;DHT22;30950;53.086;21.576;2022-11-20T03:02:38;-2.50;99.90
45207;DHT22;30950;53.086;21.576;2022-11-20T03:05:06;-2.40;99.90
45207;DHT22;30950;53.086;21.576;2022-11-20T03:07:33;-2.50;99.90
45207;DHT22;30950;53.086;21.576;2022-11-20T03:10:01;-2.50;99.90
45207;DHT22;30950;53.086;21.576;2022-11-20T03:12:28;-2.50;99.90
45207;DHT22;30950;53.086;21.576;2022-11-20T03:14:55;-2.50;99.90
45207;DHT22;30950;53.086;21.576;2022-11-20T03:17:23;-2.50;99.90
45207;DHT22;30950;53.086;21.576;2022-11-20T03:19:50;-2.50;99.90
45207;DHT22;30950;53.086;21.576;2022-11-20T03:22:17;-2.50;99.90
45207;DHT22;30950;53.086;21.576;2022-11-20T03:24:45;-2.50;99.90
45207;DHT22;30950;53.086;21.576;2022-11-20T03:27:13;-2.50;99.90
45207;DHT22;30950;53.086;21.576;2022-11-20T03:29:40;-2.50;99.90
45207;DHT22;30950;53.086;21.576;2022-11-20T03:32:08;-2.50;99.90
45207;DHT22;30950;53.086;21.576;2022-11-20T03:34:35;-2.50;99.90
45207;DHT22;30950;53.086;21.576;2022-11-20T03:37:02;-2.60;99.90
45207;DHT22;30950;53.086;21.576;2022-11-20T03:39:30;-2.50;99.90
45207;DHT22;30950;53.086;21.576;2022-11-20T03:41:57;-2.60;99.90
45207;DHT22;30950;53.086;21.576;2022-11-20T03:44:24;-2.60;99.90
45207;DHT22;30950;53.086;21.576;2022-11-20T03:46:52;-2.50;99.90
45207;DHT22;30950;53.086;21.576;2022-11-20T03:49:19;-2.60;99.90
45207;DHT22;30950;53.086;21.576;2022-11-20T03:51:47;-2.50;99.90
45207;DHT22;30950;53.086;21.576;2022-11-20T03:54:14;-2.50;99.90
45207;DHT22;30950;53.086;21.576;2022-11-20T03:56:42;-2.50;99.90
45207;DHT22;30950;53.086;21.576;2022-11-20T03:59:10;-2.50;99.90
45207;DHT22;30950;53.086;21.576;2022-11-20T04:01:38;-2.50;99.90
45207;DHT22;30950;53.086;21.576;2022-11-20T04:04:05;-2.50;99.90
45207;DHT22;30950;53.086;21.576;2022-11-20T04:06:37;-2.50;99.90
45207;DHT22;30950;53.086;21.576;2022-11-20T04:09:05;-2.40;99.90
45207;DHT22;30950;53.086;21.576;2022-11-20T04:11:35;-2.50;99.90
45207;DHT22;30950;53.086;21.576;2022-11-20T04:14:04;-2.50;99.90
45207;DHT22;30950;53.086;21.576;2022-11-20T04:16:35;-2.40;99.90
45207;DHT22;30950;53.086;21.576;2022-11-20T04:19:05;-2.40;99.90
45207;DHT22;30950;53.086;21.576;2022-11-20T04:21:33;-2.50;99.90
45207;DHT22;30950;53.086;21.576;2022-11-20T04:24:00;-2.50;99.90
45207;DHT22;30950;53.086;21.576;2022-11-20T04:26:29;-2.50;99.90
45207;DHT22;30950;53.086;21.576;2022-11-20T04:28:57;-2.50;99.90
45207;DHT22;30950;53.086;21.576;2022-11-20T04:31:27;-2.40;99.90
45207;DHT22;30950;53.086;21.576;2022-11-20T04:33:58;-2.40;99.90
45207;DHT22;30950;53.086;21.576;2022-11-20T04:36:28;-2.40;99.90
45207;DHT22;30950;53.086;21.576;2022-11-20T04:39:00;-2.40;99.90
45207;DHT22;30950;53.086;21.576;2022-11-20T04:41:30;-2.40;99.90
45207;DHT22;30950;53.086;21.576;2022-11-20T04:43:59;-2.30;99.90
45207;DHT22;30950;53.086;21.576;2022-11-20T04:46:32;-2.30;99.90
45207;DHT22;30950;53.086;21.576;2022-11-20T04:49:00;-2.30;99.90
45207;DHT22;30950;53.086;21.576;2022-11-20T04:51:28;-2.30;99.90
45207;DHT22;30950;53.086;21.576;2022-11-20T04:53:56;-2.20;99.90
45207;DHT22;30950;53.086;21.576;2022-11-20T04:56:23;-2.30;99.90
45207;DHT22;30950;53.086;21.576;2022-11-20T04:58:51;-2.20;99.90
45207;DHT22;30950;53.086;21.576;2022-11-20T05:01:23;-2.20;99.90
45207;DHT22;30950;53.086;21.576;2022-11-20T05:03:51;-2.20;99.90
45207;DHT22;30950;53.086;21.576;2022-11-20T05:06:24;-2.10;99.90
45207;DHT22;30950;53.086;21.576;2022-11-20T05:08:51;-2.20;99.90
45207;DHT22;30950;53.086;21.576;2022-11-20T05:11:21;-2.20;99.90
45207;DHT22;30950;53.086;21.576;2022-11-20T05:13:50;-2.10;99.90
45207;DHT22;30950;53.086;21.576;2022-11-20T05:16:21;-2.10;99.90
45207;DHT22;30950;53.086;21.576;2022-11-20T05:18:50;-2.10;99.90
45207;DHT22;30950;53.086;21.576;2022-11-20T05:21:17;-2.20;99.90
45207;DHT22;30950;53.086;21.576;2022-11-20T05:23:45;-2.10;99.90
45207;DHT22;30950;53.086;21.576;2022-11-20T05:26:19;-2.20;99.90
45207;DHT22;30950;53.086;21.576;2022-11-20T05:28:49;-2.20;99.90
45207;DHT22;30950;53.086;21.576;2022-11-20T05:31:22;-2.20;99.90
45207;DHT22;30950;53.086;21.576;2022-11-20T05:33:55;-2.20;99.90
45207;DHT22;30950;53.086;21.576;2022-11-20T05:36:23;-2.10;99.90
45207;DHT22;30950;53.086;21.576;2022-11-20T05:38:51;-2.10;99.90
45207;DHT22;30950;53.086;21.576;2022-11-20T05:41:26;-2.10;99.90
45207;DHT22;30950;53.086;21.576;2022-11-20T05:43:53;-2.10;99.90
45207;DHT22;30950;53.086;21.576;2022-11-20T05:46:20;-2.10;99.90
45207;DHT22;30950;53.086;21.576;2022-11-20T05:48:55;-2.10;99.90
45207;DHT22;30950;53.086;21.576;2022-11-20T05:51:24;-2.10;99.90
45207;DHT22;30950;53.086;21.576;2022-11-20T05:53:52;-2.00;99.90
45207;DHT22;30950;53.086;21.576;2022-11-20T05:56:20;-2.00;99.90
45207;DHT22;30950;53.086;21.576;2022-11-20T05:58:49;-2.00;99.90
45207;DHT22;30950;53.086;21.576;2022-11-20T06:01:24;-2.00;99.90
45207;DHT22;30950;53.086;21.576;2022-11-20T06:03:53;-2.00;99.90
45207;DHT22;30950;53.086;21.576;2022-11-20T06:06:21;-2.00;99.90
45207;DHT22;30950;53.086;21.576;2022-11-20T06:08:48;-2.00;99.90
45207;DHT22;30950;53.086;21.576;2022-11-20T06:11:17;-2.00;99.90
45207;DHT22;30950;53.086;21.576;2022-11-20T06:13:44;-2.00;99.90
45207;DHT22;30950;53.086;21.576;2022-11-20T06:16:15;-2.00;99.90
45207;DHT22;30950;53.086;21.576;2022-11-20T06:18:42;-1.90;99.90
45207;DHT22;30950;53.086;21.576;2022-11-20T06:21:15;-2.00;99.90
45207;DHT22;30950;53.086;21.576;2022-11-20T06:23:43;-2.00;99.90
45207;DHT22;30950;53.086;21.576;2022-11-20T06:26:21;-1.90;99.90
45207;DHT22;30950;53.086;21.576;2022-11-20T06:28:49;-2.00;99.90
45207;DHT22;30950;53.086;21.576;2022-11-20T06:31:18;-2.00;99.90
45207;DHT22;30950;53.086;21.576;2022-11-20T06:33:47;-2.00;99.90
45207;DHT22;30950;53.086;21.576;2022-11-20T06:36:16;-2.00;99.90
45207;DHT22;30950;53.086;21.576;2022-11-20T06:38:44;-2.00;99.90
45207;DHT22;30950;53.086;21.576;2022-11-20T06:41:14;-2.00;99.90
45207;DHT22;30950;53.086;21.576;2022-11-20T06:43:42;-2.00;99.90
45207;DHT22;30950;53.086;21.576;2022-11-20T06:46:11;-2.00;99.90
45207;DHT22;30950;53.086;21.576;2022-11-20T06:48:39;-2.00;99.90
45207;DHT22;30950;53.086;21.576;2022-11-20T06:51:08;-2.00;99.90
45207;DHT22;30950;53.086;21.576;2022-11-20T06:53:35;-1.90;99.90
45207;DHT22;30950;53.086;21.576;2022-11-20T06:56:03;-1.90;99.90
45207;DHT22;30950;53.086;21.576;2022-11-20T06:58:33;-1.90;99.90
45207;DHT22;30950;53.086;21.576;2022-11-20T07:01:04;-1.90;99.90
45207;DHT22;30950;53.086;21.576;2022-11-20T07:03:32;-1.80;99.90
45207;DHT22;30950;53.086;21.576;2022-11-20T07:06:00;-1.80;99.90
45207;DHT22;30950;53.086;21.576;2022-11-20T07:08:28;-1.80;99.90
45207;DHT22;30950;53.086;21.576;2022-11-20T07:11:01;-1.70;99.90
45207;DHT22;30950;53.086;21.576;2022-11-20T07:13:29;-1.70;99.90
45207;DHT22;30950;53.086;21.576;2022-11-20T07:16:04;-1.70;99.90
45207;DHT22;30950;53.086;21.576;2022-11-20T07:18:32;-1.60;99.90
45207;DHT22;30950;53.086;21.576;2022-11-20T07:21:05;-1.60;99.90
45207;DHT22;30950;53.086;21.576;2022-11-20T07:23:32;-1.60;99.90
45207;DHT22;30950;53.086;21.576;2022-11-20T07:26:08;-1.60;99.90
45207;DHT22;30950;53.086;21.576;2022-11-20T07:28:36;-1.60;99.90
45207;DHT22;30950;53.086;21.576;2022-11-20T07:31:04;-1.60;99.90
45207;DHT22;30950;53.086;21.576;2022-11-20T07:33:33;-1.50;99.90
45207;DHT22;30950;53.086;21.576;2022-11-20T07:36:01;-1.50;99.90
45207;DHT22;30950;53.086;21.576;2022-11-20T07:38:28;-1.50;99.90
45207;DHT22;30950;53.086;21.576;2022-11-20T07:40:56;-1.40;99.90
45207;DHT22;30950;53.086;21.576;2022-11-20T07:43:24;-1.40;99.90
45207;DHT22;30950;53.086;21.576;2022-11-20T07:45:55;-1.40;99.90
45207;DHT22;30950;53.086;21.576;2022-11-20T07:48:23;-1.30;99.90
45207;DHT22;30950;53.086;21.576;2022-11-20T07:50:56;-1.30;99.90
45207;DHT22;30950;53.086;21.576;2022-11-20T07:53:24;-1.30;99.90
45207;DHT22;30950;53.086;21.576;2022-11-20T07:55:52;-1.30;99.90
45207;DHT22;30950;53.086;21.576;2022-11-20T07:58:20;-1.30;99.90
45207;DHT22;30950;53.086;21.576;2022-11-20T08:00:47;-1.20;99.90
45207;DHT22;30950;53.086;21.576;2022-11-20T08:03:15;-1.20;99.90
45207;DHT22;30950;53.086;21.576;2022-11-20T08:05:50;-1.20;99.90
45207;DHT22;30950;53.086;21.576;2022-11-20T08:08:17;-1.20;99.90
45207;DHT22;30950;53.086;21.576;2022-11-20T08:10:45;-1.20;99.90
45207;DHT22;30950;53.086;21.576;2022-11-20T08:13:12;-1.10;99.90
45207;DHT22;30950;53.086;21.576;2022-11-20T08:15:58;-1.10;99.90
45207;DHT22;30950;53.086;21.576;2022-11-20T08:18:25;-1.00;99.90
45207;DHT22;30950;53.086;21.576;2022-11-20T08:21:03;-1.00;99.90
45207;DHT22;30950;53.086;21.576;2022-11-20T08:23:30;-0.90;99.90
45207;DHT22;30950;53.086;21.576;2022-11-20T08:25:58;-0.80;99.90
45207;DHT22;30950;53.086;21.576;2022-11-20T08:28:25;-0.70;99.90
45207;DHT22;30950;53.086;21.576;2022-11-20T08:31:01;-0.70;99.90
45207;DHT22;30950;53.086;21.576;2022-11-20T08:33:29;-0.70;99.90
45207;DHT22;30950;53.086;21.576;2022-11-20T08:36:01;-0.60;99.90
45207;DHT22;30950;53.086;21.576;2022-11-20T08:38:29;-0.60;99.90
45207;DHT22;30950;53.086;21.576;2022-11-20T08:41:02;-0.50;99.90
45207;DHT22;30950;53.086;21.576;2022-11-20T08:43:49;-0.50;99.90
45207;DHT22;30950;53.086;21.576;2022-11-20T08:46:17;-0.50;99.90
45207;DHT22;30950;53.086;21.576;2022-11-20T08:48:44;-0.50;99.90
45207;DHT22;30950;53.086;21.576;2022-11-20T08:51:12;-0.60;99.90
45207;DHT22;30950;53.086;21.576;2022-11-20T08:53:40;-0.60;99.90
45207;DHT22;30950;53.086;21.576;2022-11-20T08:56:08;-0.60;99.90
45207;DHT22;30950;53.086;21.576;2022-11-20T08:58:38;-0.60;99.90
45207;DHT22;30950;53.086;21.576;2022-11-20T09:01:26;-0.60;99.90
45207;DHT22;30950;53.086;21.576;2022-11-20T09:03:56;-0.60;99.90
45207;DHT22;30950;53.086;21.576;2022-11-20T09:06:27;-0.60;99.90
45207;DHT22;30950;53.086;21.576;2022-11-20T09:08:54;-0.60;99.90
45207;DHT22;30950;53.086;21.576;2022-11-20T09:11:22;-0.50;99.90
45207;DHT22;30950;53.086;21.576;2022-11-20T09:13:50;-0.50;99.90
45207;DHT22;30950;53.086;21.576;2022-11-20T09:16:17;-0.40;99.90
45207;DHT22;30950;53.086;21.576;2022-11-20T09:18:44;-0.40;99.90
45207;DHT22;30950;53.086;21.576;2022-11-20T09:21:13;-0.40;99.90
45207;DHT22;30950;53.086;21.576;2022-11-20T09:23:41;-0.30;99.90
45207;DHT22;30950;53.086;21.576;2022-11-20T09:26:13;-0.30;99.90
45207;DHT22;30950;53.086;21.576;2022-11-20T09:28:40;-0.20;99.90
45207;DHT22;30950;53.086;21.576;2022-11-20T09:31:16;-0.20;99.90
45207;DHT22;30950;53.086;21.576;2022-11-20T09:33:45;-0.20;99.90
45207;DHT22;30950;53.086;21.576;2022-11-20T09:36:12;-0.10;99.90
45207;DHT22;30950;53.086;21.576;2022-11-20T09:38:39;-0.10;99.90
45207;DHT22;30950;53.086;21.576;2022-11-20T09:46:54;0.00;99.90
45207;DHT22;30950;53.086;21.576;2022-11-20T09:54:41;0.10;99.90
45207;DHT22;30950;53.086;21.576;2022-11-20T09:57:15;0.20;99.90
45207;DHT22;30950;53.086;21.576;2022-11-20T09:59:46;0.30;99.90
45207;DHT22;30950;53.086;21.576;2022-11-20T10:04:53;0.40;99.90
45207;DHT22;30950;53.086;21.576;2022-11-20T10:07:27;0.50;99.90
45207;DHT22;30950;53.086;21.576;2022-11-20T10:09:59;0.60;99.90
45207;DHT22;30950;53.086;21.576;2022-11-20T10:18:05;1.60;99.90
45207;DHT22;30950;53.086;21.576;2022-11-20T10:26:12;3.30;99.90
45207;DHT22;30950;53.086;21.576;2022-11-20T10:31:37;4.00;99.90
45207;DHT22;30950;53.086;21.576;2022-11-20T10:34:23;4.40;99.90
45207;DHT22;30950;53.086;21.576;2022-11-20T10:36:54;4.60;99.90
45207;DHT22;30950;53.086;21.576;2022-11-20T10:40:16;4.60;98.50
45207;DHT22;30950;53.086;21.576;2022-11-20T10:42:48;4.40;97.20
45207;DHT22;30950;53.086;21.576;2022-11-20T10:50:37;3.40;98.00
45207;DHT22;30950;53.086;21.576;2022-11-20T10:55:48;3.10;97.80
45207;DHT22;30950;53.086;21.576;2022-11-20T10:58:30;2.80;97.30
45207;DHT22;30950;53.086;21.576;2022-11-20T11:03:41;2.50;99.10
45207;DHT22;30950;53.086;21.576;2022-11-20T11:08:47;2.30;99.90
45207;DHT22;30950;53.086;21.576;2022-11-20T11:11:37;2.30;99.90
45207;DHT22;30950;53.086;21.576;2022-11-20T11:14:06;2.20;99.90
45207;DHT22;30950;53.086;21.576;2022-11-20T11:16:34;2.20;99.90
45207;DHT22;30950;53.086;21.576;2022-11-20T11:19:12;2.20;99.90
45207;DHT22;30950;53.086;21.576;2022-11-20T11:21:52;2.20;99.90
45207;DHT22;30950;53.086;21.576;2022-11-20T11:24:24;2.20;99.90
45207;DHT22;30950;53.086;21.576;2022-11-20T11:27:14;2.40;99.90
45207;DHT22;30950;53.086;21.576;2022-11-20T11:29:46;2.80;99.90
45207;DHT22;30950;53.086;21.576;2022-11-20T11:32:19;3.10;99.90
45207;DHT22;30950;53.086;21.576;2022-11-20T11:35:05;3.50;99.90
45207;DHT22;30950;53.086;21.576;2022-11-20T11:37:35;3.60;99.90
45207;DHT22;30950;53.086;21.576;2022-11-20T11:40:05;3.70;99.90
45207;DHT22;30950;53.086;21.576;2022-11-20T11:42:58;3.70;98.80
45207;DHT22;30950;53.086;21.576;2022-11-20T11:45:27;3.60;98.10
45207;DHT22;30950;53.086;21.576;2022-11-20T11:47:57;3.30;98.00
45207;DHT22;30950;53.086;21.576;2022-11-20T11:50:26;3.10;98.10
45207;DHT22;30950;53.086;21.576;2022-11-20T11:53:13;3.00;99.00
45207;DHT22;30950;53.086;21.576;2022-11-20T12:00:58;2.70;99.70
45207;DHT22;30950;53.086;21.576;2022-11-20T12:03:37;2.50;99.80
45207;DHT22;30950;53.086;21.576;2022-11-20T12:06:15;2.40;99.90
45207;DHT22;30950;53.086;21.576;2022-11-20T12:08:55;2.30;99.90
45207;DHT22;30950;53.086;21.576;2022-11-20T12:11:53;2.30;99.90
45207;DHT22;30950;53.086;21.576;2022-11-20T12:14:33;2.20;99.90
45207;DHT22;30950;53.086;21.576;2022-11-20T12:17:04;2.20;99.90
45207;DHT22;30950;53.086;21.576;2022-11-20T12:19:34;2.20;99.90
45207;DHT22;30950;53.086;21.576;2022-11-20T12:22:27;2.20;99.90
45207;DHT22;30950;53.086;21.576;2022-11-20T12:25:16;2.20;99.90
45207;DHT22;30950;53.086;21.576;2022-11-20T12:30:33;2.20;99.90
45207;DHT22;30950;53.086;21.576;2022-11-20T12:44:57;2.20;99.90
45207;DHT22;30950;53.086;21.576;2022-11-20T12:53:46;2.10;99.90
45207;DHT22;30950;53.086;21.576;2022-11-20T13:04:48;2.30;99.90
45207;DHT22;30950;53.086;21.576;2022-11-20T13:07:19;2.30;99.90
45207;DHT22;30950;53.086;21.576;2022-11-20T13:09:50;2.40;99.90
45207;DHT22;30950;53.086;21.576;2022-11-20T13:18:00;2.40;99.90
45207;DHT22;30950;53.086;21.576;2022-11-20T13:20:29;2.40;99.90
45207;DHT22;30950;53.086;21.576;2022-11-20T13:22:57;2.40;99.90
45207;DHT22;30950;53.086;21.576;2022-11-20T13:25:34;2.30;99.90
45207;DHT22;30950;53.086;21.576;2022-11-20T13:28:28;2.30;99.90
45207;DHT22;30950;53.086;21.576;2022-11-20T13:30:57;2.20;99.90
45207;DHT22;30950;53.086;21.576;2022-11-20T13:33:34;2.10;99.90
45207;DHT22;30950;53.086;21.576;2022-11-20T13:38:46;2.00;99.90
45207;DHT22;30950;53.086;21.576;2022-11-20T13:41:31;2.00;99.90
45207;DHT22;30950;53.086;21.576;2022-11-20T13:46:39;1.90;99.90
45207;DHT22;30950;53.086;21.576;2022-11-20T13:51:47;1.80;99.90
45207;DHT22;30950;53.086;21.576;2022-11-20T13:54:41;1.80;99.90
45207;DHT22;30950;53.086;21.576;2022-11-20T14:00:16;1.80;99.90
45207;DHT22;30950;53.086;21.576;2022-11-20T14:03:02;1.70;99.90
45207;DHT22;30950;53.086;21.576;2022-11-20T14:05:39;1.60;99.90
45207;DHT22;30950;53.086;21.576;2022-11-20T14:08:14;1.60;99.90
45207;DHT22;30950;53.086;21.576;2022-11-20T14:10:43;1.60;99.90
45207;DHT22;30950;53.086;21.576;2022-11-20T14:13:17;1.50;99.90
45207;DHT22;30950;53.086;21.576;2022-11-20T14:15:45;1.40;99.90
45207;DHT22;30950;53.086;21.576;2022-11-20T14:18:21;1.40;99.90
45207;DHT22;30950;53.086;21.576;2022-11-20T14:20:51;1.30;99.90
45207;DHT22;30950;53.086;21.576;2022-11-20T14:23:29;1.20;99.90
45207;DHT22;30950;53.086;21.576;2022-11-20T14:25:57;1.10;99.90
45207;DHT22;30950;53.086;21.576;2022-11-20T14:28:29;1.00;99.90
45207;DHT22;30950;53.086;21.576;2022-11-20T14:30:57;1.00;99.90
45207;DHT22;30950;53.086;21.576;2022-11-20T14:33:26;0.80;99.90
45207;DHT22;30950;53.086;21.576;2022-11-20T14:35:55;0.80;99.90
45207;DHT22;30950;53.086;21.576;2022-11-20T14:38:31;0.80;99.90
45207;DHT22;30950;53.086;21.576;2022-11-20T14:41:07;0.70;99.90
45207;DHT22;30950;53.086;21.576;2022-11-20T14:43:34;0.70;99.90
45207;DHT22;30950;53.086;21.576;2022-11-20T14:46:08;0.60;99.90
45207;DHT22;30950;53.086;21.576;2022-11-20T14:48:48;0.60;99.90
45207;DHT22;30950;53.086;21.576;2022-11-20T14:51:32;0.60;99.90
45207;DHT22;30950;53.086;21.576;2022-11-20T14:54:20;0.60;99.90
45207;DHT22;30950;53.086;21.576;2022-11-20T14:57:00;0.60;99.90
45207;DHT22;30950;53.086;21.576;2022-11-20T14:59:31;0.60;99.90
45207;DHT22;30950;53.086;21.576;2022-11-20T15:02:12;0.60;99.90
45207;DHT22;30950;53.086;21.576;2022-11-20T15:04:48;0.50;99.90
45207;DHT22;30950;53.086;21.576;2022-11-20T15:07:31;0.50;99.90
45207;DHT22;30950;53.086;21.576;2022-11-20T15:10:04;0.50;99.90
45207;DHT22;30950;53.086;21.576;2022-11-20T15:12:36;0.40;99.90
45207;DHT22;30950;53.086;21.576;2022-11-20T15:15:05;0.40;99.90
45207;DHT22;30950;53.086;21.576;2022-11-20T15:17:40;0.40;99.90
45207;DHT22;30950;53.086;21.576;2022-11-20T15:20:13;0.40;99.90
45207;DHT22;30950;53.086;21.576;2022-11-20T15:22:40;0.40;99.90
45207;DHT22;30950;53.086;21.576;2022-11-20T15:25:16;0.30;99.90
45207;DHT22;30950;53.086;21.576;2022-11-20T15:27:44;0.30;99.90
45207;DHT22;30950;53.086;21.576;2022-11-20T15:30:17;0.30;99.90
45207;DHT22;30950;53.086;21.576;2022-11-20T15:32:45;0.20;99.90
45207;DHT22;30950;53.086;21.576;2022-11-20T15:35:14;0.30;99.90
45207;DHT22;30950;53.086;21.576;2022-11-20T15:37:42;0.20;99.90
45207;DHT22;30950;53.086;21.576;2022-11-20T15:40:10;0.20;99.90
45207;DHT22;30950;53.086;21.576;2022-11-20T15:42:38;0.20;99.90
45207;DHT22;30950;53.086;21.576;2022-11-20T15:45:05;0.20;99.90
45207;DHT22;30950;53.086;21.576;2022-11-20T15:47:34;0.20;99.90
45207;DHT22;30950;53.086;21.576;2022-11-20T15:50:02;0.20;99.90
45207;DHT22;30950;53.086;21.576;2022-11-20T15:52:30;0.20;99.90
45207;DHT22;30950;53.086;21.576;2022-11-20T15:55:10;0.20;99.90
45207;DHT22;30950;53.086;21.576;2022-11-20T15:57:37;0.20;99.90
45207;DHT22;30950;53.086;21.576;2022-11-20T16:00:05;0.10;99.90
45207;DHT22;30950;53.086;21.576;2022-11-20T16:02:36;0.10;99.90
45207;DHT22;30950;53.086;21.576;2022-11-20T16:05:04;0.10;99.90
45207;DHT22;30950;53.086;21.576;2022-11-20T16:07:36;0.10;99.90
45207;DHT22;30950;53.086;21.576;2022-11-20T16:10:04;0.00;99.90
45207;DHT22;30950;53.086;21.576;2022-11-20T16:12:31;0.10;99.90
45207;DHT22;30950;53.086;21.576;2022-11-20T16:15:19;0.00;99.90
45207;DHT22;30950;53.086;21.576;2022-11-20T16:18:07;0.00;99.90
45207;DHT22;30950;53.086;21.576;2022-11-20T16:20:35;0.00;99.90
45207;DHT22;30950;53.086;21.576;2022-11-20T16:23:03;0.00;99.90
45207;DHT22;30950;53.086;21.576;2022-11-20T16:25:31;-0.10;99.90
45207;DHT22;30950;53.086;21.576;2022-11-20T16:27:58;-0.10;99.90
45207;DHT22;30950;53.086;21.576;2022-11-20T16:30:26;-0.10;99.90
45207;DHT22;30950;53.086;21.576;2022-11-20T16:32:54;-0.10;99.90
45207;DHT22;30950;53.086;21.576;2022-11-20T16:35:22;-0.10;99.90
45207;DHT22;30950;53.086;21.576;2022-11-20T16:37:49;-0.10;99.90
45207;DHT22;30950;53.086;21.576;2022-11-20T16:40:17;-0.20;99.90
45207;DHT22;30950;53.086;21.576;2022-11-20T16:42:44;-0.20;99.90
45207;DHT22;30950;53.086;21.576;2022-11-20T16:45:12;-0.20;99.90
45207;DHT22;30950;53.086;21.576;2022-11-20T16:47:39;-0.20;99.90
45207;DHT22;30950;53.086;21.576;2022-11-20T16:50:07;-0.20;99.90
45207;DHT22;30950;53.086;21.576;2022-11-20T16:52:35;-0.20;99.90
45207;DHT22;30950;53.086;21.576;2022-11-20T16:55:03;-0.20;99.90
45207;DHT22;30950;53.086;21.576;2022-11-20T16:57:31;-0.20;99.90
45207;DHT22;30950;53.086;21.576;2022-11-20T17:00:03;-0.20;99.90
45207;DHT22;30950;53.086;21.576;2022-11-20T17:02:30;-0.20;99.90
45207;DHT22;30950;53.086;21.576;2022-11-20T17:04:58;-0.20;99.90
45207;DHT22;30950;53.086;21.576;2022-11-20T17:07:43;-0.20;99.90
45207;DHT22;30950;53.086;21.576;2022-11-20T17:10:11;-0.20;99.90
45207;DHT22;30950;53.086;21.576;2022-11-20T17:12:38;-0.20;99.90
45207;DHT22;30950;53.086;21.576;2022-11-20T17:15:06;-0.20;99.90
45207;DHT22;30950;53.086;21.576;2022-11-20T17:17:33;-0.20;99.90